sensor_id;sensor_type;location;lat;lon;timestamp;pressure;altitude;pressure_sealevel;temperature;humidity
67013;BME280;53926;47.406;19.188;2023-03-26T00:01:20;99811.06;;;7.26;95.78
67013;BME280;53926;47.406;19.188;2023-03-26T00:03:46;99813.62;;;7.19;96.41
67013;BME280;53926;47.406;19.188;2023-03-26T00:06:30;99816.78;;;7.08;97.21
67013;BME280;53926;47.406;19.188;2023-03-26T00:09:00;99811.22;;;7.11;97.24
67013;BME280;53926;47.406;19.188;2023-03-26T00:11:28;99803.84;;;7.08;96.92
67013;BME280;53926;47.406;19.188;2023-03-26T00:13:55;99797.47;;;7.04;96.98
67013;BME280;53926;47.406;19.188;2023-03-26T00:16:26;99804.22;;;6.91;97.75
67013;BME280;53926;47.406;19.188;2023-03-26T00:18:53;99793.44;;;6.81;98.31
67013;BME280;53926;47.406;19.188;2023-03-26T00:21:23;99799.62;;;6.87;97.84
67013;BME280;53926;47.406;19.188;2023-03-26T00:23:56;99801.22;;;6.94;97.13
67013;BME280;53926;47.406;19.188;2023-03-26T00:26:25;99793.25;;;6.89;97.26
67013;BME280;53926;47.406;19.188;2023-03-26T00:28:52;99794.81;;;6.70;98.80
67013;BME280;53926;47.406;19.188;2023-03-26T00:31:20;99788.34;;;6.46;100.00
67013;BME280;53926;47.406;19.188;2023-03-26T00:33:46;99794.66;;;6.30;100.00
67013;BME280;53926;47.406;19.188;2023-03-26T00:36:14;99790.81;;;6.19;100.00
67013;BME280;53926;47.406;19.188;2023-03-26T00:38:43;99792.56;;;6.19;100.00
67013;BME280;53926;47.406;19.188;2023-03-26T00:41:12;99784.59;;;6.14;100.00
67013;BME280;53926;47.406;19.188;2023-03-26T00:43:53;99794.97;;;6.20;100.00
67013;BME280;53926;47.406;19.188;2023-03-26T00:46:23;99791.22;;;6.23;100.00
67013;BME280;53926;47.406;19.188;2023-03-26T00:48:50;99793.97;;;6.15;100.00
67013;BME280;53926;47.406;19.188;2023-03-26T00:51:18;99786.81;;;6.17;100.00
67013;BME280;53926;47.406;19.188;2023-03-26T00:53:47;99785.41;;;6.14;100.00
67013;BME280;53926;47.406;19.188;2023-03-26T00:56:15;99784.59;;;6.07;100.00
67013;BME280;53926;47.406;19.188;2023-03-26T00:58:42;99780.41;;;6.13;100.00
67013;BME280;53926;47.406;19.188;2023-03-26T01:01:11;99781.03;;;6.15;100.00
67013;BME280;53926;47.406;19.188;2023-03-26T01:03:43;99773.16;;;6.30;100.00
67013;BME280;53926;47.406;19.188;2023-03-26T01:06:32;99766.41;;;6.35;100.00
67013;BME280;53926;47.406;19.188;2023-03-26T01:09:18;99773.34;;;6.28;100.00
67013;BME280;53926;47.406;19.188;2023-03-26T01:11:46;99773.16;;;6.30;100.00
67013;BME280;53926;47.406;19.188;2023-03-26T01:14:17;99784.12;;;6.38;100.00
67013;BME280;53926;47.406;19.188;2023-03-26T01:16:53;99781.34;;;6.40;100.00
67013;BME280;53926;47.406;19.188;2023-03-26T01:21:50;99787.47;;;6.25;100.00
67013;BME280;53926;47.406;19.188;2023-03-26T01:24:17;99786.78;;;6.10;100.00
67013;BME280;53926;47.406;19.188;2023-03-26T01:29:48;99785.88;;;5.68;100.00
67013;BME280;53926;47.406;19.188;2023-03-26T01:40:34;99780.87;;;5.38;100.00
67013;BME280;53926;47.406;19.188;2023-03-26T01:46:03;99784.22;;;5.32;100.00
67013;BME280;53926;47.406;19.188;2023-03-26T01:48:37;99785.50;;;5.21;100.00
67013;BME280;53926;47.406;19.188;2023-03-26T01:51:05;99797.56;;;4.99;100.00
67013;BME280;53926;47.406;19.188;2023-03-26T01:53:35;99797.03;;;5.04;100.00
67013;BME280;53926;47.406;19.188;2023-03-26T02:01:27;99786.03;;;4.95;100.00
67013;BME280;53926;47.406;19.188;2023-03-26T02:04:30;99788.06;;;4.99;100.00
67013;BME280;53926;47.406;19.188;2023-03-26T02:07:13;99782.72;;;5.01;100.00
67013;BME280;53926;47.406;19.188;2023-03-26T02:09:49;99781.50;;;5.18;100.00
67013;BME280;53926;47.406;19.188;2023-03-26T02:12:20;99781.22;;;5.28;100.00
67013;BME280;53926;47.406;19.188;2023-03-26T02:14:48;99790.97;;;5.54;100.00
67013;BME280;53926;47.406;19.188;2023-03-26T02:17:15;99785.84;;;5.61;100.00
67013;BME280;53926;47.406;19.188;2023-03-26T02:19:42;99791.53;;;5.78;100.00
67013;BME280;53926;47.406;19.188;2023-03-26T02:22:09;99791.38;;;5.86;100.00
67013;BME280;53926;47.406;19.188;2023-03-26T02:24:42;99796.97;;;5.90;100.00
67013;BME280;53926;47.406;19.188;2023-03-26T02:27:09;99797.72;;;5.84;100.00
67013;BME280;53926;47.406;19.188;2023-03-26T02:29:38;99802.25;;;5.82;100.00
67013;BME280;53926;47.406;19.188;2023-03-26T02:32:06;99805.97;;;5.72;100.00
67013;BME280;53926;47.406;19.188;2023-03-26T02:34:33;99798.66;;;5.76;100.00
67013;BME280;53926;47.406;19.188;2023-03-26T02:37:00;99798.91;;;5.81;100.00
67013;BME280;53926;47.406;19.188;2023-03-26T02:39:26;99799.78;;;5.67;100.00
67013;BME280;53926;47.406;19.188;2023-03-26T02:41:53;99799.31;;;5.57;100.00
67013;BME280;53926;47.406;19.188;2023-03-26T02:44:20;99799.50;;;5.12;100.00
67013;BME280;53926;47.406;19.188;2023-03-26T02:46:46;99802.31;;;4.95;100.00
67013;BME280;53926;47.406;19.188;2023-03-26T02:49:13;99800.06;;;4.56;100.00
67013;BME280;53926;47.406;19.188;2023-03-26T02:51:40;99795.03;;;4.33;100.00
67013;BME280;53926;47.406;19.188;2023-03-26T02:54:06;99797.97;;;4.29;100.00
67013;BME280;53926;47.406;19.188;2023-03-26T02:56:33;99789.88;;;3.88;100.00
67013;BME280;53926;47.406;19.188;2023-03-26T02:59:00;99794.06;;;4.04;100.00
67013;BME280;53926;47.406;19.188;2023-03-26T03:01:27;99788.37;;;4.08;100.00
67013;BME280;53926;47.406;19.188;2023-03-26T03:03:56;99789.69;;;3.89;100.00
67013;BME280;53926;47.406;19.188;2023-03-26T03:06:23;99786.41;;;3.81;100.00
67013;BME280;53926;47.406;19.188;2023-03-26T03:08:51;99778.91;;;3.71;100.00
67013;BME280;53926;47.406;19.188;2023-03-26T03:11:19;99786.97;;;3.53;100.00
67013;BME280;53926;47.406;19.188;2023-03-26T03:13:52;99786.13;;;3.37;100.00
67013;BME280;53926;47.406;19.188;2023-03-26T03:16:19;99791.12;;;3.39;100.00
67013;BME280;53926;47.406;19.188;2023-03-26T03:18:46;99795.28;;;3.17;100.00
67013;BME280;53926;47.406;19.188;2023-03-26T03:21:20;99788.94;;;3.28;100.00
67013;BME280;53926;47.406;19.188;2023-03-26T03:23:47;99778.97;;;3.01;100.00
67013;BME280;53926;47.406;19.188;2023-03-26T03:26:16;99778.28;;;2.84;100.00
67013;BME280;53926;47.406;19.188;2023-03-26T03:28:50;99779.50;;;2.65;100.00
67013;BME280;53926;47.406;19.188;2023-03-26T03:31:17;99779.56;;;2.49;100.00
67013;BME280;53926;47.406;19.188;2023-03-26T03:33:44;99793.88;;;2.43;100.00
67013;BME280;53926;47.406;19.188;2023-03-26T03:36:13;99793.00;;;2.20;100.00
67013;BME280;53926;47.406;19.188;2023-03-26T03:38:46;99799.25;;;2.25;100.00
67013;BME280;53926;47.406;19.188;2023-03-26T03:41:12;99796.53;;;2.19;100.00
67013;BME280;53926;47.406;19.188;2023-03-26T03:43:39;99793.97;;;2.19;100.00
67013;BME280;53926;47.406;19.188;2023-03-26T03:46:06;99797.69;;;2.08;100.00
67013;BME280;53926;47.406;19.188;2023-03-26T03:48:33;99793.81;;;2.12;100.00
67013;BME280;53926;47.406;19.188;2023-03-26T03:51:04;99794.97;;;2.01;100.00
67013;BME280;53926;47.406;19.188;2023-03-26T03:53:31;99804.16;;;1.79;100.00
67013;BME280;53926;47.406;19.188;2023-03-26T03:56:02;99808.94;;;2.07;100.00
67013;BME280;53926;47.406;19.188;2023-03-26T03:58:30;99812.47;;;1.89;100.00
67013;BME280;53926;47.406;19.188;2023-03-26T04:00:56;99819.25;;;1.82;100.00
67013;BME280;53926;47.406;19.188;2023-03-26T04:03:26;99824.06;;;1.60;100.00
67013;BME280;53926;47.406;19.188;2023-03-26T04:06:00;99815.22;;;1.38;100.00
67013;BME280;53926;47.406;19.188;2023-03-26T04:08:26;99815.72;;;1.75;100.00
67013;BME280;53926;47.406;19.188;2023-03-26T04:10:53;99823.09;;;1.53;100.00
67013;BME280;53926;47.406;19.188;2023-03-26T04:13:20;99816.03;;;1.72;100.00
67013;BME280;53926;47.406;19.188;2023-03-26T04:15:46;99814.09;;;1.49;100.00
67013;BME280;53926;47.406;19.188;2023-03-26T04:18:13;99821.47;;;1.52;100.00
67013;BME280;53926;47.406;19.188;2023-03-26T04:20:42;99810.75;;;1.40;100.00
67013;BME280;53926;47.406;19.188;2023-03-26T04:23:13;99816.34;;;1.28;100.00
67013;BME280;53926;47.406;19.188;2023-03-26T04:25:50;99815.72;;;1.42;100.00
67013;BME280;53926;47.406;19.188;2023-03-26T04:28:43;99814.25;;;1.23;100.00
67013;BME280;53926;47.406;19.188;2023-03-26T04:31:18;99807.66;;;1.12;100.00
67013;BME280;53926;47.406;19.188;2023-03-26T04:33:50;99813.44;;;1.22;100.00
67013;BME280;53926;47.406;19.188;2023-03-26T04:36:27;99814.41;;;1.05;100.00
67013;BME280;53926;47.406;19.188;2023-03-26T04:38:55;99806.38;;;1.24;100.00
67013;BME280;53926;47.406;19.188;2023-03-26T04:41:23;99810.22;;;1.04;100.00
67013;BME280;53926;47.406;19.188;2023-03-26T04:43:54;99813.44;;;1.22;100.00
67013;BME280;53926;47.406;19.188;2023-03-26T04:46:22;99800.91;;;1.03;100.00
67013;BME280;53926;47.406;19.188;2023-03-26T04:48:50;99804.13;;;1.13;100.00
67013;BME280;53926;47.406;19.188;2023-03-26T04:51:20;99801.88;;;1.02;100.00
67013;BME280;53926;47.406;19.188;2023-03-26T04:53:55;99811.69;;;1.15;100.00
67013;BME280;53926;47.406;19.188;2023-03-26T04:58:50;99822.75;;;1.40;100.00
67013;BME280;53926;47.406;19.188;2023-03-26T05:01:17;99820.34;;;1.38;100.00
67013;BME280;53926;47.406;19.188;2023-03-26T05:03:43;99816.19;;;1.29;100.00
67013;BME280;53926;47.406;19.188;2023-03-26T05:06:12;99820.84;;;1.25;100.00
67013;BME280;53926;47.406;19.188;2023-03-26T05:08:39;99817.31;;;1.27;100.00
67013;BME280;53926;47.406;19.188;2023-03-26T05:11:09;99823.25;;;1.76;100.00
67013;BME280;53926;47.406;19.188;2023-03-26T05:13:37;99813.59;;;2.03;100.00
67013;BME280;53926;47.406;19.188;2023-03-26T05:16:04;99809.22;;;2.28;100.00
67013;BME280;53926;47.406;19.188;2023-03-26T05:18:31;99810.47;;;2.80;100.00
67013;BME280;53926;47.406;19.188;2023-03-26T05:20:58;99809.09;;;2.93;100.00
67013;BME280;53926;47.406;19.188;2023-03-26T05:23:25;99813.59;;;3.22;100.00
67013;BME280;53926;47.406;19.188;2023-03-26T05:25:52;99809.47;;;3.74;100.00
67013;BME280;53926;47.406;19.188;2023-03-26T05:28:18;99809.69;;;4.17;100.00
67013;BME280;53926;47.406;19.188;2023-03-26T05:30:51;99818.72;;;4.73;100.00
67013;BME280;53926;47.406;19.188;2023-03-26T05:33:19;99808.69;;;5.36;100.00
67013;BME280;53926;47.406;19.188;2023-03-26T05:35:46;99808.50;;;5.94;100.00
67013;BME280;53926;47.406;19.188;2023-03-26T05:38:14;99813.44;;;6.52;100.00
67013;BME280;53926;47.406;19.188;2023-03-26T05:40:41;99805.44;;;7.02;100.00
67013;BME280;53926;47.406;19.188;2023-03-26T05:43:08;99804.50;;;7.37;100.00
67013;BME280;53926;47.406;19.188;2023-03-26T05:45:34;99811.66;;;7.75;100.00
67013;BME280;53926;47.406;19.188;2023-03-26T05:48:01;99811.41;;;8.23;100.00
67013;BME280;53926;47.406;19.188;2023-03-26T05:50:28;99809.06;;;8.73;96.63
67013;BME280;53926;47.406;19.188;2023-03-26T05:52:54;99814.16;;;8.87;92.10
67013;BME280;53926;47.406;19.188;2023-03-26T05:55:23;99811.13;;;8.97;91.24
67013;BME280;53926;47.406;19.188;2023-03-26T05:57:50;99811.31;;;8.56;91.48
67013;BME280;53926;47.406;19.188;2023-03-26T06:00:17;99805.97;;;8.31;93.61
67013;BME280;53926;47.406;19.188;2023-03-26T06:02:44;99807.03;;;8.10;94.53
67013;BME280;53926;47.406;19.188;2023-03-26T06:05:12;99799.09;;;8.70;94.64
67013;BME280;53926;47.406;19.188;2023-03-26T06:07:38;99792.81;;;10.48;85.29
67013;BME280;53926;47.406;19.188;2023-03-26T06:10:05;99793.66;;;12.27;74.70
67013;BME280;53926;47.406;19.188;2023-03-26T06:12:32;99803.91;;;13.66;66.62
67013;BME280;53926;47.406;19.188;2023-03-26T06:14:59;99794.03;;;14.79;60.79
67013;BME280;53926;47.406;19.188;2023-03-26T06:17:28;99795.34;;;15.46;56.05
67013;BME280;53926;47.406;19.188;2023-03-26T06:19:55;99791.34;;;14.74;54.50
67013;BME280;53926;47.406;19.188;2023-03-26T06:22:22;99792.84;;;17.14;49.57
67013;BME280;53926;47.406;19.188;2023-03-26T06:24:48;99792.00;;;16.83;47.95
67013;BME280;53926;47.406;19.188;2023-03-26T06:27:18;99787.00;;;17.68;44.85
67013;BME280;53926;47.406;19.188;2023-03-26T06:29:44;99785.88;;;17.85;42.28
67013;BME280;53926;47.406;19.188;2023-03-26T06:32:11;99786.63;;;18.61;41.68
67013;BME280;53926;47.406;19.188;2023-03-26T06:34:46;99797.19;;;18.61;40.32
67013;BME280;53926;47.406;19.188;2023-03-26T06:37:12;99787.53;;;17.45;42.86
67013;BME280;53926;47.406;19.188;2023-03-26T06:39:39;99794.16;;;20.00;37.59
67013;BME280;53926;47.406;19.188;2023-03-26T06:42:06;99797.31;;;20.03;37.85
67013;BME280;53926;47.406;19.188;2023-03-26T06:44:33;99795.06;;;21.10;35.26
67013;BME280;53926;47.406;19.188;2023-03-26T06:46:59;99799.88;;;20.51;34.51
67013;BME280;53926;47.406;19.188;2023-03-26T06:49:26;99792.91;;;20.36;35.27
67013;BME280;53926;47.406;19.188;2023-03-26T06:51:53;99794.72;;;19.73;37.14
67013;BME280;53926;47.406;19.188;2023-03-26T06:54:19;99807.94;;;19.68;36.93
67013;BME280;53926;47.406;19.188;2023-03-26T06:56:46;99805.81;;;20.62;35.08
67013;BME280;53926;47.406;19.188;2023-03-26T06:59:12;99802.81;;;19.23;38.31
67013;BME280;53926;47.406;19.188;2023-03-26T07:01:39;99805.09;;;18.01;40.20
67013;BME280;53926;47.406;19.188;2023-03-26T07:04:06;99809.87;;;19.62;37.78
67013;BME280;53926;47.406;19.188;2023-03-26T07:06:32;99806.59;;;20.43;36.02
67013;BME280;53926;47.406;19.188;2023-03-26T07:08:59;99808.03;;;20.11;35.80
67013;BME280;53926;47.406;19.188;2023-03-26T07:11:26;99821.13;;;20.22;35.41
67013;BME280;53926;47.406;19.188;2023-03-26T07:13:52;99810.56;;;20.22;35.38
67013;BME280;53926;47.406;19.188;2023-03-26T07:16:21;99814.75;;;19.16;37.24
67013;BME280;53926;47.406;19.188;2023-03-26T07:18:48;99829.19;;;18.94;37.55
67013;BME280;53926;47.406;19.188;2023-03-26T07:21:15;99820.72;;;17.56;40.25
67013;BME280;53926;47.406;19.188;2023-03-26T07:23:41;99821.31;;;18.34;39.49
67013;BME280;53926;47.406;19.188;2023-03-26T07:28:58;99816.53;;;18.41;41.60
67013;BME280;53926;47.406;19.188;2023-03-26T07:31:53;99814.56;;;18.07;40.73
67013;BME280;53926;47.406;19.188;2023-03-26T07:37:09;99812.66;;;19.18;40.35
67013;BME280;53926;47.406;19.188;2023-03-26T07:42:49;99818.28;;;20.18;36.89
67013;BME280;53926;47.406;19.188;2023-03-26T07:45:42;99810.81;;;19.77;37.92
67013;BME280;53926;47.406;19.188;2023-03-26T07:48:31;99817.19;;;19.71;39.74
67013;BME280;53926;47.406;19.188;2023-03-26T07:51:02;99818.03;;;20.96;37.21
67013;BME280;53926;47.406;19.188;2023-03-26T07:53:29;99817.19;;;20.19;39.36
67013;BME280;53926;47.406;19.188;2023-03-26T07:56:09;99815.56;;;19.99;37.49
67013;BME280;53926;47.406;19.188;2023-03-26T08:04:07;99813.91;;;19.55;40.24
67013;BME280;53926;47.406;19.188;2023-03-26T08:10:02;99806.50;;;17.52;45.15
67013;BME280;53926;47.406;19.188;2023-03-26T08:12:36;99808.22;;;16.49;47.51
67013;BME280;53926;47.406;19.188;2023-03-26T08:18:11;99798.03;;;15.51;48.25
67013;BME280;53926;47.406;19.188;2023-03-26T08:20:45;99792.75;;;16.68;46.77
67013;BME280;53926;47.406;19.188;2023-03-26T08:26:18;99786.16;;;17.83;43.66
67013;BME280;53926;47.406;19.188;2023-03-26T08:31:38;99788.28;;;18.52;40.50
67013;BME280;53926;47.406;19.188;2023-03-26T08:34:09;99792.47;;;17.98;41.66
67013;BME280;53926;47.406;19.188;2023-03-26T08:36:36;99784.16;;;16.98;44.07
67013;BME280;53926;47.406;19.188;2023-03-26T08:39:04;99794.06;;;16.55;45.96
67013;BME280;53926;47.406;19.188;2023-03-26T08:42:14;99791.72;;;15.90;48.41
67013;BME280;53926;47.406;19.188;2023-03-26T08:54:46;99789.41;;;15.99;47.30
67013;BME280;53926;47.406;19.188;2023-03-26T09:31:03;99760.13;;;21.96;36.88
67013;BME280;53926;47.406;19.188;2023-03-26T10:32:27;99672.28;;;15.93;47.72
67013;BME280;53926;47.406;19.188;2023-03-26T10:53:12;99662.28;;;12.10;73.49
67013;BME280;53926;47.406;19.188;2023-03-26T10:55:48;99662.84;;;12.12;77.59
67013;BME280;53926;47.406;19.188;2023-03-26T10:58:26;99654.28;;;11.99;78.44
67013;BME280;53926;47.406;19.188;2023-03-26T11:07:22;99641.63;;;12.37;79.53
67013;BME280;53926;47.406;19.188;2023-03-26T11:10:06;99618.69;;;12.39;75.63
67013;BME280;53926;47.406;19.188;2023-03-26T11:44:19;99555.94;;;15.13;57.87
67013;BME280;53926;47.406;19.188;2023-03-26T11:51:56;99534.81;;;15.46;54.09
67013;BME280;53926;47.406;19.188;2023-03-26T12:10:20;99504.63;;;18.21;47.31
67013;BME280;53926;47.406;19.188;2023-03-26T12:13:37;99502.53;;;16.79;47.01
67013;BME280;53926;47.406;19.188;2023-03-26T12:31:28;99464.75;;;18.28;42.39
67013;BME280;53926;47.406;19.188;2023-03-26T12:42:45;99436.87;;;22.80;29.84
67013;BME280;53926;47.406;19.188;2023-03-26T13:36:01;99348.09;;;19.70;32.31
67013;BME280;53926;47.406;19.188;2023-03-26T13:51:05;99324.59;;;19.54;31.60
67013;BME280;53926;47.406;19.188;2023-03-26T13:57:49;99318.84;;;18.24;33.18
67013;BME280;53926;47.406;19.188;2023-03-26T14:07:49;99305.47;;;18.15;33.35
67013;BME280;53926;47.406;19.188;2023-03-26T14:10:39;99293.84;;;18.59;32.88
67013;BME280;53926;47.406;19.188;2023-03-26T14:52:12;99236.78;;;19.48;30.06
67013;BME280;53926;47.406;19.188;2023-03-26T14:54:43;99237.81;;;19.20;30.71
67013;BME280;53926;47.406;19.188;2023-03-26T15:11:02;99211.91;;;16.97;34.26
67013;BME280;53926;47.406;19.188;2023-03-26T15:13:57;99203.28;;;16.91;34.35
67013;BME280;53926;47.406;19.188;2023-03-26T15:16:57;99203.22;;;16.96;34.51
67013;BME280;53926;47.406;19.188;2023-03-26T16:01:35;99163.94;;;15.11;38.45
67013;BME280;53926;47.406;19.188;2023-03-26T16:11:53;99145.63;;;14.75;40.08
67013;BME280;53926;47.406;19.188;2023-03-26T16:16:58;99136.16;;;14.58;39.69
67013;BME280;53926;47.406;19.188;2023-03-26T16:19:32;99129.38;;;14.52;39.50
67013;BME280;53926;47.406;19.188;2023-03-26T16:22:11;99131.44;;;14.40;40.22
67013;BME280;53926;47.406;19.188;2023-03-26T16:24:44;99118.59;;;14.23;40.25
67013;BME280;53926;47.406;19.188;2023-03-26T16:32:43;99108.81;;;13.72;42.36
67013;BME280;53926;47.406;19.188;2023-03-26T16:37:47;99097.28;;;13.57;42.02
67013;BME280;53926;47.406;19.188;2023-03-26T16:46:15;99089.22;;;13.16;42.89
67013;BME280;53926;47.406;19.188;2023-03-26T16:52:00;99093.78;;;12.88;44.60
67013;BME280;53926;47.406;19.188;2023-03-26T17:33:45;99092.19;;;10.05;57.36
67013;BME280;53926;47.406;19.188;2023-03-26T17:36:39;99099.88;;;9.71;58.56
67013;BME280;53926;47.406;19.188;2023-03-26T17:39:18;99097.94;;;10.07;57.52
67013;BME280;53926;47.406;19.188;2023-03-26T17:42:17;99094.75;;;9.88;57.22
67013;BME280;53926;47.406;19.188;2023-03-26T17:45:34;99098.41;;;9.75;58.31
67013;BME280;53926;47.406;19.188;2023-03-26T17:50:43;99089.09;;;9.79;59.09
67013;BME280;53926;47.406;19.188;2023-03-26T17:53:22;99084.84;;;9.73;60.49
67013;BME280;53926;47.406;19.188;2023-03-26T17:55:50;99086.72;;;9.90;58.88
67013;BME280;53926;47.406;19.188;2023-03-26T17:58:25;99088.75;;;9.88;60.21
67013;BME280;53926;47.406;19.188;2023-03-26T18:03:53;99094.03;;;9.64;61.02
67013;BME280;53926;47.406;19.188;2023-03-26T18:20:44;99076.66;;;10.10;61.49
67013;BME280;53926;47.406;19.188;2023-03-26T18:23:27;99077.78;;;10.14;61.89
67013;BME280;53926;47.406;19.188;2023-03-26T18:25:57;99080.09;;;10.28;62.86
67013;BME280;53926;47.406;19.188;2023-03-26T18:28:36;99075.81;;;10.22;61.94
67013;BME280;53926;47.406;19.188;2023-03-26T18:31:17;99073.59;;;10.13;62.42
67013;BME280;53926;47.406;19.188;2023-03-26T18:33:46;99070.34;;;10.06;63.60
67013;BME280;53926;47.406;19.188;2023-03-26T18:36:15;99075.56;;;10.06;62.96
67013;BME280;53926;47.406;19.188;2023-03-26T18:38:44;99070.34;;;10.06;64.28
67013;BME280;53926;47.406;19.188;2023-03-26T18:41:26;99070.25;;;10.01;65.08
67013;BME280;53926;47.406;19.188;2023-03-26T18:44:00;99058.38;;;10.05;63.52
67013;BME280;53926;47.406;19.188;2023-03-26T18:46:27;99060.81;;;10.12;64.08
67013;BME280;53926;47.406;19.188;2023-03-26T18:48:54;99056.13;;;10.43;62.56
67013;BME280;53926;47.406;19.188;2023-03-26T18:51:24;99061.50;;;10.53;61.30
67013;BME280;53926;47.406;19.188;2023-03-26T18:53:57;99055.34;;;10.59;61.73
67013;BME280;53926;47.406;19.188;2023-03-26T18:56:40;99051.00;;;10.65;60.22
67013;BME280;53926;47.406;19.188;2023-03-26T18:59:22;99052.38;;;10.67;61.24
67013;BME280;53926;47.406;19.188;2023-03-26T19:02:03;99046.03;;;10.80;60.26
67013;BME280;53926;47.406;19.188;2023-03-26T19:04:31;99028.19;;;10.89;61.91
67013;BME280;53926;47.406;19.188;2023-03-26T19:06:59;99025.84;;;11.09;56.73
67013;BME280;53926;47.406;19.188;2023-03-26T19:09:27;99017.19;;;11.26;55.59
67013;BME280;53926;47.406;19.188;2023-03-26T19:12:04;99016.84;;;11.22;55.97
67013;BME280;53926;47.406;19.188;2023-03-26T19:14:31;99010.75;;;11.12;58.13
67013;BME280;53926;47.406;19.188;2023-03-26T19:17:04;99009.00;;;11.17;56.34
67013;BME280;53926;47.406;19.188;2023-03-26T19:19:35;98998.62;;;11.22;55.71
67013;BME280;53926;47.406;19.188;2023-03-26T19:22:04;99007.88;;;11.13;56.49
67013;BME280;53926;47.406;19.188;2023-03-26T19:24:33;98999.34;;;11.18;57.41
67013;BME280;53926;47.406;19.188;2023-03-26T19:26:59;98991.28;;;11.19;55.86
67013;BME280;53926;47.406;19.188;2023-03-26T19:29:30;98993.84;;;11.14;55.89
67013;BME280;53926;47.406;19.188;2023-03-26T19:32:03;98986.56;;;11.16;55.09
67013;BME280;53926;47.406;19.188;2023-03-26T19:34:33;98986.31;;;11.18;55.25
67013;BME280;53926;47.406;19.188;2023-03-26T19:37:02;98977.47;;;11.19;55.23
67013;BME280;53926;47.406;19.188;2023-03-26T19:39:39;98974.25;;;11.12;55.52
67013;BME280;53926;47.406;19.188;2023-03-26T19:42:12;98978.69;;;11.11;54.57
67013;BME280;53926;47.406;19.188;2023-03-26T19:44:40;98967.13;;;11.02;55.34
67013;BME280;53926;47.406;19.188;2023-03-26T19:47:20;98963.63;;;10.91;56.46
67013;BME280;53926;47.406;19.188;2023-03-26T19:49:58;98960.78;;;10.93;57.16
67013;BME280;53926;47.406;19.188;2023-03-26T19:52:35;98952.97;;;10.93;56.17
67013;BME280;53926;47.406;19.188;2023-03-26T19:55:15;98946.16;;;10.91;57.06
67013;BME280;53926;47.406;19.188;2023-03-26T19:57:44;98937.53;;;10.86;55.99
67013;BME280;53926;47.406;19.188;2023-03-26T20:00:12;98944.53;;;10.85;56.87
67013;BME280;53926;47.406;19.188;2023-03-26T20:02:39;98930.00;;;10.89;56.21
67013;BME280;53926;47.406;19.188;2023-03-26T20:05:18;98923.16;;;10.83;57.35
67013;BME280;53926;47.406;19.188;2023-03-26T20:07:44;98912.00;;;10.88;57.90
67013;BME280;53926;47.406;19.188;2023-03-26T20:10:11;98912.69;;;10.78;57.55
67013;BME280;53926;47.406;19.188;2023-03-26T20:12:37;98907.53;;;10.83;57.50
67013;BME280;53926;47.406;19.188;2023-03-26T20:15:25;98906.62;;;10.72;58.96
67013;BME280;53926;47.406;19.188;2023-03-26T20:17:53;98901.53;;;10.61;59.48
67013;BME280;53926;47.406;19.188;2023-03-26T20:20:22;98902.19;;;10.51;59.30
67013;BME280;53926;47.406;19.188;2023-03-26T20:22:53;98893.53;;;10.45;61.78
67013;BME280;53926;47.406;19.188;2023-03-26T20:25:23;98882.25;;;10.40;60.79
67013;BME280;53926;47.406;19.188;2023-03-26T20:27:58;98871.69;;;10.46;60.39
67013;BME280;53926;47.406;19.188;2023-03-26T20:30:25;98862.78;;;10.42;60.06
67013;BME280;53926;47.406;19.188;2023-03-26T20:33:03;98862.31;;;10.45;58.44
67013;BME280;53926;47.406;19.188;2023-03-26T20:35:39;98857.28;;;10.38;59.53
67013;BME280;53926;47.406;19.188;2023-03-26T20:38:06;98843.63;;;10.31;60.64
67013;BME280;53926;47.406;19.188;2023-03-26T20:40:38;98837.88;;;10.46;58.42
67013;BME280;53926;47.406;19.188;2023-03-26T20:43:10;98833.63;;;10.40;58.68
67013;BME280;53926;47.406;19.188;2023-03-26T20:45:38;98824.72;;;10.36;59.49
67013;BME280;53926;47.406;19.188;2023-03-26T20:48:05;98827.94;;;10.43;58.81
67013;BME280;53926;47.406;19.188;2023-03-26T20:50:33;98833.06;;;10.60;57.63
67013;BME280;53926;47.406;19.188;2023-03-26T20:53:03;98821.19;;;10.69;56.99
67013;BME280;53926;47.406;19.188;2023-03-26T20:55:30;98819.69;;;10.73;57.03
67013;BME280;53926;47.406;19.188;2023-03-26T20:57:57;98825.88;;;10.67;56.36
67013;BME280;53926;47.406;19.188;2023-03-26T21:00:23;98822.47;;;10.67;59.58
67013;BME280;53926;47.406;19.188;2023-03-26T21:02:55;98823.06;;;10.52;58.67
67013;BME280;53926;47.406;19.188;2023-03-26T21:05:24;98826.34;;;10.42;57.60
67013;BME280;53926;47.406;19.188;2023-03-26T21:07:58;98813.44;;;10.30;59.54
67013;BME280;53926;47.406;19.188;2023-03-26T21:10:26;98815.69;;;10.44;58.59
67013;BME280;53926;47.406;19.188;2023-03-26T21:12:57;98809.25;;;10.46;58.52
67013;BME280;53926;47.406;19.188;2023-03-26T21:15:25;98821.97;;;10.70;56.24
67013;BME280;53926;47.406;19.188;2023-03-26T21:17:55;98825.38;;;10.70;56.84
67013;BME280;53926;47.406;19.188;2023-03-26T21:20:23;98826.66;;;10.68;56.57
67013;BME280;53926;47.406;19.188;2023-03-26T21:23:12;98833.25;;;10.76;57.14
67013;BME280;53926;47.406;19.188;2023-03-26T21:25:59;98825.38;;;10.98;55.50
67013;BME280;53926;47.406;19.188;2023-03-26T21:28:37;98839.78;;;11.05;55.93
67013;BME280;53926;47.406;19.188;2023-03-26T21:31:20;98831.53;;;11.14;55.29
67013;BME280;53926;47.406;19.188;2023-03-26T21:33:47;98827.34;;;11.13;57.13
67013;BME280;53926;47.406;19.188;2023-03-26T21:36:16;98827.00;;;11.04;59.57
67013;BME280;53926;47.406;19.188;2023-03-26T21:38:46;98828.69;;;10.88;64.21
67013;BME280;53926;47.406;19.188;2023-03-26T21:41:30;98829.75;;;10.65;70.17
67013;BME280;53926;47.406;19.188;2023-03-26T21:44:02;98831.56;;;10.42;75.20